createdAt,value
2024-04-18T06:49:30.977Z,94526.00
2024-04-18T06:50:30.977Z,94523.00
2024-04-18T06:51:30.995Z,94528.00
2024-04-18T06:52:30.949Z,94530.00
2024-04-18T06:53:30.958Z,94532.00
2024-04-18T06:54:30.985Z,94532.00
2024-04-18T06:55:30.952Z,94531.00
2024-04-18T06:56:30.957Z,94536.00
2024-04-18T06:57:30.983Z,94535.00
2024-04-18T06:58:30.961Z,94537.00
2024-04-18T06:59:30.961Z,94536.00
2024-04-18T07:00:31.023Z,94537.00
2024-04-18T07:01:30.966Z,94538.00
2024-04-18T07:02:30.997Z,94542.00
2024-04-18T07:03:31.140Z,94530.00
2024-04-18T07:04:31.129Z,94540.00
2024-04-18T07:05:31.027Z,94538.00
2024-04-18T07:06:31.032Z,94538.00
2024-04-18T07:07:31.016Z,94536.00
2024-04-18T07:08:31.013Z,94536.00
2024-04-18T07:09:31.065Z,94535.00
2024-04-18T07:10:31.039Z,94537.00
2024-04-18T07:11:31.065Z,94533.00
2024-04-18T07:12:31.041Z,94536.00
2024-04-18T07:13:33.464Z,94537.00
2024-04-18T07:14:31.022Z,94537.00
2024-04-18T07:15:31.082Z,94541.00
2024-04-18T07:16:31.035Z,94539.00
2024-04-18T07:17:31.079Z,94539.00
2024-04-18T07:18:31.130Z,94540.00
2024-04-18T07:19:31.023Z,94544.00
2024-04-18T07:20:31.592Z,94542.00
2024-04-18T07:21:31.091Z,94544.00
2024-04-18T07:22:31.036Z,94544.00
2024-04-18T07:23:31.048Z,94543.00
2024-04-18T07:24:31.050Z,94543.00
2024-04-18T07:25:31.025Z,94545.00
2024-04-18T07:26:31.065Z,94550.00
2024-04-18T07:27:31.051Z,94548.00
2024-04-18T07:28:31.041Z,94547.00
2024-04-18T07:29:31.050Z,94547.00
2024-04-18T07:30:31.098Z,94550.00
2024-04-18T07:31:31.066Z,94551.00
2024-04-18T07:32:31.122Z,94553.00
2024-04-18T07:33:31.209Z,94553.00
2024-04-18T07:34:31.087Z,94557.00
2024-04-18T07:35:31.067Z,94556.00
2024-04-18T07:36:31.113Z,94557.00
2024-04-18T07:37:32.938Z,94558.00
2024-04-18T07:38:31.080Z,94559.00
2024-04-18T07:39:31.080Z,94561.00
2024-04-18T07:40:31.092Z,94553.00
2024-04-18T07:41:31.064Z,94562.00
2024-04-18T07:42:31.111Z,94563.00
2024-04-18T07:43:31.044Z,94559.00
2024-04-18T07:44:31.049Z,94557.00
2024-04-18T07:45:31.071Z,94555.00
2024-04-18T07:46:31.055Z,94560.00
2024-04-18T07:47:31.130Z,94565.00
2024-04-18T07:48:31.208Z,94561.00
2024-04-18T07:49:31.214Z,94561.00
2024-04-18T07:50:31.321Z,94565.00
2024-04-18T07:51:31.440Z,94565.00
2024-04-18T07:52:31.549Z,94564.00
2024-04-18T07:53:31.683Z,94571.00
2024-04-18T07:54:31.769Z,94569.00
2024-04-18T07:55:31.892Z,94569.00
2024-04-18T07:56:32.545Z,94573.00
2024-04-18T07:57:32.587Z,94572.00
2024-04-18T07:58:32.544Z,94569.00
2024-04-18T07:59:32.971Z,94573.00
2024-04-18T08:00:34.168Z,94572.00
2024-04-18T08:01:34.211Z,94575.00
2024-04-18T08:02:34.425Z,94573.00
2024-04-18T08:03:36.211Z,94572.00
2024-04-18T08:05:35.030Z,94574.00
2024-04-18T08:06:34.505Z,94573.00
2024-04-18T08:07:34.878Z,94573.00
2024-04-18T08:08:34.962Z,94573.00
2024-04-18T08:09:34.690Z,94571.00
2024-04-18T08:10:36.815Z,94574.00
2024-04-18T08:12:04.679Z,94580.00
2024-04-18T08:12:37.744Z,94582.00
2024-04-18T08:13:37.746Z,94583.00
2024-04-18T08:14:37.886Z,94582.00
2024-04-18T08:16:33.639Z,94583.00
2024-04-18T08:17:32.682Z,94583.00
2024-04-18T08:18:32.541Z,94586.00
2024-04-18T08:19:32.525Z,94583.00
2024-04-18T08:20:32.531Z,94587.00
2024-04-18T08:21:32.633Z,94588.00
2024-04-18T08:22:32.572Z,94585.00
2024-04-18T08:23:32.526Z,94587.00
2024-04-18T08:24:32.588Z,94591.00
2024-04-18T08:25:32.537Z,94589.00
2024-04-18T08:26:32.546Z,94592.00
2024-04-18T08:27:32.591Z,94593.00
2024-04-18T08:28:32.516Z,94593.00
2024-04-18T08:29:32.557Z,94595.00
2024-04-18T08:30:32.596Z,94593.00
2024-04-18T08:31:32.629Z,94594.00
2024-04-18T08:32:32.553Z,94595.00
2024-04-18T08:33:32.608Z,94597.00
2024-04-18T08:34:33.610Z,94598.00
2024-04-18T08:35:32.561Z,94599.00
2024-04-18T08:36:32.593Z,94601.00
2024-04-18T08:37:32.555Z,94601.00
2024-04-18T08:38:32.570Z,94602.00
2024-04-18T08:39:32.608Z,94603.00
2024-04-18T08:40:32.570Z,94604.00
2024-04-18T08:41:35.216Z,94600.00
2024-04-18T08:42:32.546Z,94602.00
2024-04-18T08:43:32.562Z,94599.00
2024-04-18T08:44:32.558Z,94601.00
2024-04-18T08:45:32.602Z,94601.00
2024-04-18T08:46:32.620Z,94602.00
2024-04-18T08:47:34.179Z,94606.00
2024-04-18T08:48:32.642Z,94604.00
2024-04-18T08:49:32.593Z,94604.00
2024-04-18T08:50:32.559Z,94605.00
2024-04-18T08:51:32.709Z,94606.00
2024-04-18T08:52:35.672Z,94605.00
2024-04-18T08:53:32.603Z,94610.00
2024-04-18T08:54:32.639Z,94609.00
2024-04-18T08:55:32.634Z,94608.00
2024-04-18T08:56:32.622Z,94609.00
2024-04-18T08:57:32.681Z,94610.00
2024-04-18T08:58:32.624Z,94611.00
2024-04-18T08:59:32.614Z,94611.00
2024-04-18T09:00:32.709Z,94615.00
2024-04-18T09:01:32.657Z,94621.00
2024-04-18T09:02:32.684Z,94615.00
2024-04-18T09:03:32.742Z,94619.00
2024-04-18T09:04:32.644Z,94615.00
2024-04-18T09:05:33.769Z,94616.00
2024-04-18T09:06:32.748Z,94618.00
2024-04-18T09:07:32.620Z,94616.00
2024-04-18T09:08:32.634Z,94617.00
2024-04-18T09:09:32.680Z,94615.00
2024-04-18T09:10:33.550Z,94614.00
2024-04-18T09:11:33.899Z,94617.00
2024-04-18T09:12:32.722Z,94614.00
2024-04-18T09:13:32.640Z,94614.00
2024-04-18T09:14:32.627Z,94613.00
2024-04-18T09:15:32.766Z,94611.00
2024-04-18T09:16:32.628Z,94611.00
2024-04-18T09:17:32.677Z,94610.00
2024-04-18T09:18:32.847Z,94606.00
2024-04-18T09:19:32.618Z,94608.00
2024-04-18T09:20:32.638Z,94606.00
2024-04-18T09:21:32.678Z,94610.00
2024-04-18T09:22:32.628Z,94609.00
2024-04-18T09:23:32.659Z,94613.00
2024-04-18T09:24:32.715Z,94612.00
2024-04-18T09:25:34.746Z,94609.00
2024-04-18T09:26:32.668Z,94616.00
2024-04-18T09:27:32.692Z,94619.00
2024-04-18T09:28:32.647Z,94620.00
2024-04-18T09:29:32.656Z,94619.00
2024-04-18T09:30:32.720Z,94620.00
2024-04-18T09:31:38.392Z,94628.00
2024-04-18T09:32:33.753Z,94621.00
2024-04-18T09:33:32.697Z,94620.00
2024-04-18T09:34:32.652Z,94619.00
2024-04-18T09:35:32.684Z,94618.00
2024-04-18T09:36:32.661Z,94618.00
2024-04-18T09:37:32.681Z,94618.00
2024-04-18T09:38:32.671Z,94618.00
2024-04-18T09:39:32.695Z,94619.00
2024-04-18T09:40:32.668Z,94619.00
2024-04-18T09:41:32.696Z,94620.00
2024-04-18T09:42:32.880Z,94619.00
2024-04-18T09:43:32.921Z,94622.00
2024-04-18T09:44:33.030Z,94621.00
2024-04-18T09:45:33.132Z,94624.00
2024-04-18T09:46:33.214Z,94621.00
2024-04-18T09:47:33.345Z,94620.00
2024-04-18T09:48:33.590Z,94623.00
2024-04-18T09:49:33.663Z,94626.00
2024-04-18T09:50:33.655Z,94625.00
2024-04-18T09:51:33.792Z,94620.00
2024-04-18T09:52:33.837Z,94620.00
2024-04-18T09:53:33.939Z,94626.00
2024-04-18T09:54:34.152Z,94623.00
2024-04-18T09:55:35.086Z,94619.00
2024-04-18T09:56:34.167Z,94615.00
2024-04-18T09:57:34.227Z,94620.00
2024-04-18T09:58:34.229Z,94613.00
2024-04-18T09:59:34.251Z,94615.00
2024-04-18T10:00:34.299Z,94616.00
2024-04-18T10:01:34.435Z,94617.00
2024-04-18T10:02:34.538Z,94616.00
2024-04-18T10:03:34.639Z,94613.00
2024-04-18T10:04:34.679Z,94612.00
2024-04-18T10:05:34.738Z,94610.00
2024-04-18T10:06:35.132Z,94611.00
2024-04-18T10:07:34.890Z,94608.00
2024-04-18T10:08:34.940Z,94610.00
2024-04-18T10:09:35.113Z,94613.00
2024-04-18T10:10:35.058Z,94612.00
2024-04-18T10:11:35.248Z,94616.00
2024-04-18T10:12:35.269Z,94609.00
2024-04-18T10:13:35.246Z,94611.00
2024-04-18T10:14:35.289Z,94612.00
2024-04-18T10:15:35.374Z,94610.00
2024-04-18T10:16:35.419Z,94611.00
2024-04-18T10:17:35.546Z,94609.00
2024-04-18T10:18:35.735Z,94611.00
2024-04-18T10:19:35.665Z,94610.00
2024-04-18T10:20:35.634Z,94607.00
2024-04-18T10:21:43.199Z,94607.00
2024-04-18T10:22:45.530Z,94603.00
2024-04-18T10:23:36.699Z,94601.00
2024-04-18T10:24:35.883Z,94604.00
2024-04-18T10:25:35.710Z,94605.00
2024-04-18T10:26:35.727Z,94604.00
2024-04-18T10:27:35.942Z,94605.00
2024-04-18T10:28:35.792Z,94606.00
2024-04-18T10:29:35.822Z,94607.00
2024-04-18T10:30:35.996Z,94605.00
2024-04-18T10:31:35.819Z,94606.00
2024-04-18T10:32:35.841Z,94604.00
2024-04-18T10:33:35.799Z,94604.00
2024-04-18T10:34:35.875Z,94605.00
2024-04-18T10:35:35.748Z,94604.00
2024-04-18T10:36:35.992Z,94606.00
2024-04-18T10:37:35.769Z,94609.00
2024-04-18T10:38:35.743Z,94609.00
2024-04-18T10:39:35.983Z,94607.00
2024-04-18T10:40:35.836Z,94605.00
2024-04-18T10:41:35.751Z,94601.00
2024-04-18T10:42:35.856Z,94606.00
2024-04-18T10:43:35.720Z,94605.00
2024-04-18T10:44:35.729Z,94606.00
2024-04-18T10:45:35.930Z,94602.00
2024-04-18T10:46:35.767Z,94604.00
2024-04-18T10:47:35.986Z,94602.00
2024-04-18T10:48:35.906Z,94604.00
2024-04-18T10:49:35.881Z,94602.00
2024-04-18T10:50:35.766Z,94606.00
2024-04-18T10:51:36.000Z,94604.00
2024-04-18T10:52:35.872Z,94606.00
2024-04-18T10:53:35.897Z,94606.00
2024-04-18T10:54:35.941Z,94607.00
2024-04-18T10:55:35.806Z,94609.00
2024-04-18T10:56:35.763Z,94607.00
2024-04-18T10:57:35.890Z,94607.00
2024-04-18T10:58:35.920Z,94605.00
2024-04-18T10:59:35.982Z,94607.00
2024-04-18T11:00:36.155Z,94611.00
2024-04-18T11:01:36.981Z,94608.00
2024-04-18T11:02:36.429Z,94608.00
2024-04-18T11:03:36.453Z,94604.00
2024-04-18T11:04:36.395Z,94602.00
2024-04-18T11:05:36.496Z,94604.00
2024-04-18T11:06:36.673Z,94604.00
2024-04-18T11:07:36.696Z,94603.00
2024-04-18T11:08:36.906Z,94604.00
2024-04-18T11:09:36.917Z,94606.00
2024-04-18T11:10:37.045Z,94607.00
2024-04-18T11:11:37.154Z,94608.00
2024-04-18T11:12:37.288Z,94609.00
2024-04-18T11:13:37.327Z,94604.00
2024-04-18T11:14:37.458Z,94607.00
2024-04-18T11:15:37.613Z,94604.00
2024-04-18T11:16:37.678Z,94604.00
2024-04-18T11:17:37.804Z,94603.00
2024-04-18T11:18:37.975Z,94605.00
2024-04-18T11:19:37.969Z,94603.00
2024-04-18T11:20:38.071Z,94606.00
2024-04-18T11:21:38.255Z,94606.00
2024-04-18T11:22:38.317Z,94604.00
2024-04-18T11:23:44.643Z,94601.00
2024-04-18T11:24:39.449Z,94601.00
2024-04-18T11:25:38.422Z,94601.00
2024-04-18T11:26:38.394Z,94598.00
2024-04-18T11:27:38.456Z,94595.00
2024-04-18T11:28:38.428Z,94596.00
2024-04-18T11:29:38.418Z,94597.00
2024-04-18T11:30:38.472Z,94596.00
2024-04-18T11:31:38.412Z,94593.00
2024-04-18T11:32:38.594Z,94597.00
2024-04-18T11:33:38.703Z,94594.00
2024-04-18T11:34:38.746Z,94596.00
2024-04-18T11:35:38.846Z,94598.00
2024-04-18T11:36:38.981Z,94594.00
2024-04-18T11:37:39.070Z,94594.00
2024-04-18T11:38:39.174Z,94592.00
2024-04-18T11:39:39.313Z,94591.00
2024-04-18T11:40:39.377Z,94588.00
2024-04-18T11:41:39.460Z,94586.00
2024-04-18T11:42:39.636Z,94586.00
2024-04-18T11:43:39.661Z,94587.00
2024-04-18T11:44:39.773Z,94586.00
2024-04-18T11:45:39.888Z,94585.00
2024-04-18T11:46:39.928Z,94586.00
2024-04-18T11:47:40.356Z,94590.00
2024-04-18T11:48:40.305Z,94585.00
2024-04-18T11:49:40.417Z,94588.00
2024-04-18T11:50:40.342Z,94585.00
2024-04-18T11:51:40.466Z,94584.00
2024-04-18T11:52:40.537Z,94586.00
2024-04-18T11:53:40.707Z,94587.00
2024-04-18T11:54:41.235Z,94585.00
2024-04-18T11:55:40.763Z,94583.00
2024-04-18T11:56:40.796Z,94584.00
2024-04-18T11:57:40.865Z,94583.00
2024-04-18T11:58:40.863Z,94584.00
2024-04-18T11:59:40.920Z,94585.00
2024-04-18T12:00:41.027Z,94584.00
2024-04-18T12:01:41.021Z,94582.00
2024-04-18T12:02:41.110Z,94585.00
2024-04-18T12:03:41.292Z,94583.00
2024-04-18T12:04:42.353Z,94587.00
2024-04-18T12:05:41.224Z,94588.00
2024-04-18T12:06:41.320Z,94589.00
2024-04-18T12:07:41.365Z,94586.00
2024-04-18T12:08:41.406Z,94586.00
2024-04-18T12:09:41.479Z,94590.00
2024-04-18T12:10:41.571Z,94590.00
2024-04-18T12:11:41.629Z,94591.00
2024-04-18T12:12:41.721Z,94593.00
2024-04-18T12:13:41.831Z,94596.00
2024-04-18T12:14:41.890Z,94599.00
2024-04-18T12:15:42.091Z,94597.00
2024-04-18T12:16:42.050Z,94597.00
2024-04-18T12:17:42.201Z,94604.00
2024-04-18T12:18:42.259Z,94603.00
2024-04-18T12:19:44.195Z,94602.00
2024-04-18T12:20:42.373Z,94605.00
2024-04-18T12:21:42.449Z,94601.00
2024-04-18T12:22:42.500Z,94598.00
2024-04-18T12:23:42.588Z,94602.00
2024-04-18T12:24:42.697Z,94600.00
2024-04-18T12:25:42.798Z,94601.00
2024-04-18T12:26:42.985Z,94601.00
2024-04-18T12:27:43.044Z,94598.00
2024-04-18T12:28:43.102Z,94603.00
2024-04-18T12:29:43.202Z,94602.00
2024-04-18T12:30:43.375Z,94603.00
2024-04-18T12:31:43.415Z,94600.00
2024-04-18T12:32:43.591Z,94602.00
2024-04-18T12:33:43.645Z,94605.00
2024-04-18T12:34:43.744Z,94605.00
2024-04-18T12:35:43.866Z,94603.00
2024-04-18T12:36:44.007Z,94606.00
2024-04-18T12:37:44.118Z,94605.00
2024-04-18T12:38:44.188Z,94602.00
2024-04-18T12:39:44.301Z,94599.00
2024-04-18T12:40:44.415Z,94603.00
2024-04-18T12:41:44.503Z,94598.00
2024-04-18T12:42:44.607Z,94604.00
2024-04-18T12:43:44.740Z,94597.00
2024-04-18T12:44:44.843Z,94599.00
2024-04-18T12:45:45.005Z,94598.00
2024-04-18T12:46:45.089Z,94595.00
2024-04-18T12:47:45.205Z,94596.00
2024-04-18T12:48:45.466Z,94600.00
2024-04-18T12:49:45.540Z,94598.00
2024-04-18T12:50:45.492Z,94596.00
2024-04-18T12:51:45.770Z,94603.00
2024-04-18T12:52:45.703Z,94602.00
2024-04-18T12:53:45.796Z,94603.00
2024-04-18T12:54:45.941Z,94602.00
2024-04-18T12:55:46.053Z,94605.00
2024-04-18T12:56:46.170Z,94609.00
2024-04-18T12:57:46.345Z,94609.00
2024-04-18T12:58:46.399Z,94609.00
2024-04-18T12:59:46.485Z,94609.00
2024-04-18T13:00:46.704Z,94611.00
2024-04-18T13:01:46.689Z,94610.00
2024-04-18T13:02:46.891Z,94611.00
2024-04-18T13:03:47.046Z,94616.00
2024-04-18T13:04:47.046Z,94618.00
2024-04-18T13:05:47.107Z,94618.00
2024-04-18T13:06:47.196Z,94622.00
2024-04-18T13:07:47.274Z,94624.00
2024-04-18T13:08:47.349Z,94632.00
2024-04-18T13:09:47.483Z,94632.00
2024-04-18T13:10:47.627Z,94633.00
2024-04-18T13:11:47.681Z,94632.00
2024-04-18T13:12:47.732Z,94635.00
2024-04-18T13:13:47.825Z,94638.00
2024-04-18T13:14:47.880Z,94639.00
2024-04-18T13:15:50.602Z,94639.00
2024-04-18T13:16:47.983Z,94638.00
2024-04-18T13:17:48.001Z,94635.00
2024-04-18T13:18:48.123Z,94637.00
2024-04-18T13:19:47.991Z,94635.00
2024-04-18T13:20:47.970Z,94638.00
2024-04-18T13:21:48.000Z,94639.00
2024-04-18T13:22:47.963Z,94644.00
2024-04-18T13:23:47.966Z,94643.00
2024-04-18T13:24:48.044Z,94642.00
2024-04-18T13:25:47.984Z,94644.00
2024-04-18T13:26:47.973Z,94649.00
2024-04-18T13:27:48.042Z,94648.00
2024-04-18T13:28:47.986Z,94647.00
2024-04-18T13:29:47.966Z,94649.00
2024-04-18T13:30:48.029Z,94648.00
2024-04-18T13:31:47.967Z,94649.00
2024-04-18T13:32:48.053Z,94649.00
2024-04-18T13:33:48.169Z,94648.00
2024-04-18T13:34:48.005Z,94654.00
2024-04-18T13:35:48.049Z,94654.00
2024-04-18T13:36:48.069Z,94656.00
2024-04-18T13:37:48.021Z,94655.00
2024-04-18T13:38:48.029Z,94658.00
2024-04-18T13:39:48.016Z,94658.00
2024-04-18T13:40:48.003Z,94662.00
2024-04-18T13:41:48.042Z,94660.00
2024-04-18T13:42:48.039Z,94664.00
2024-04-18T13:43:48.049Z,94661.00
2024-04-18T13:44:48.029Z,94662.00
2024-04-18T13:45:48.099Z,94664.00
2024-04-18T13:46:48.100Z,94663.00
2024-04-18T13:47:48.192Z,94664.00
2024-04-18T13:48:48.276Z,94663.00
2024-04-18T13:49:48.354Z,94665.00
2024-04-18T13:50:48.549Z,94667.00
2024-04-18T13:51:48.689Z,94666.00
2024-04-18T13:52:48.646Z,94668.00
2024-04-18T13:53:48.767Z,94668.00
2024-04-18T13:54:48.882Z,94672.00
2024-04-18T13:55:48.954Z,94672.00
2024-04-18T13:56:49.075Z,94672.00
2024-04-18T13:57:49.209Z,94673.00
2024-04-18T13:58:49.250Z,94675.00
2024-04-18T13:59:49.370Z,94676.00
2024-04-18T14:00:49.475Z,94677.00
2024-04-18T14:01:49.511Z,94677.00
2024-04-18T14:02:49.612Z,94680.00
2024-04-18T14:03:49.713Z,94678.00
2024-04-18T14:04:49.817Z,94678.00
2024-04-18T14:05:49.840Z,94684.00
2024-04-18T14:06:49.976Z,94685.00
2024-04-18T14:07:50.020Z,94680.00
2024-04-18T14:08:50.096Z,94683.00
2024-04-18T14:09:50.253Z,94681.00
2024-04-18T14:10:50.255Z,94682.00
2024-04-18T14:11:50.285Z,94679.00
2024-04-18T14:12:50.371Z,94678.00
2024-04-18T14:13:50.433Z,94685.00
2024-04-18T14:14:50.550Z,94684.00
2024-04-18T14:15:50.636Z,94683.00
2024-04-18T14:16:50.806Z,94687.00
2024-04-18T14:17:50.876Z,94694.00
2024-04-18T14:18:51.032Z,94689.00
2024-04-18T14:19:51.121Z,94692.00
2024-04-18T14:20:51.238Z,94695.00
2024-04-18T14:21:51.375Z,94693.00
2024-04-18T14:22:51.477Z,94701.00
2024-04-18T14:23:51.592Z,94700.00
2024-04-18T14:24:51.703Z,94703.00
2024-04-18T14:25:51.800Z,94702.00
2024-04-18T14:26:51.922Z,94706.00
2024-04-18T14:27:52.009Z,94706.00
2024-04-18T14:28:52.123Z,94710.00
2024-04-18T14:29:52.794Z,94709.00
2024-04-18T14:30:52.282Z,94711.00
2024-04-18T14:31:52.393Z,94714.00
2024-04-18T14:32:52.533Z,94714.00
2024-04-18T14:33:52.691Z,94714.00
2024-04-18T14:34:52.623Z,94716.00
2024-04-18T14:35:52.703Z,94720.00
2024-04-18T14:36:52.775Z,94722.00
2024-04-18T14:37:52.860Z,94723.00
2024-04-18T14:38:52.914Z,94725.00
2024-04-18T14:39:52.997Z,94731.00
2024-04-18T14:41:01.591Z,94733.00
2024-04-18T14:41:54.082Z,94734.00
2024-04-18T14:42:53.158Z,94736.00
2024-04-18T14:43:53.657Z,94735.00
2024-04-18T14:44:53.103Z,94740.00
2024-04-18T14:45:53.103Z,94741.00
2024-04-18T14:46:53.084Z,94744.00
2024-04-18T14:47:53.138Z,94745.00
2024-04-18T14:48:53.095Z,94748.00
2024-04-18T14:49:53.818Z,94748.00
2024-04-18T14:50:53.103Z,94747.00
2024-04-18T14:51:53.135Z,94750.00
2024-04-18T14:52:53.121Z,94751.00
2024-04-18T14:53:53.124Z,94751.00
2024-04-18T14:54:53.109Z,94752.00
2024-04-18T14:55:53.112Z,94754.00
2024-04-18T14:56:53.181Z,94755.00
2024-04-18T14:57:53.255Z,94756.00
2024-04-18T14:58:53.351Z,94757.00
2024-04-18T14:59:53.448Z,94760.00
2024-04-18T15:00:53.656Z,94758.00
2024-04-18T15:01:53.673Z,94760.00
2024-04-18T15:02:53.744Z,94758.00
2024-04-18T15:03:53.943Z,94764.00
2024-04-18T15:04:53.965Z,94764.00
2024-04-18T15:05:54.264Z,94765.00
2024-04-18T15:06:54.157Z,94765.00
2024-04-18T15:07:54.260Z,94767.00
2024-04-18T15:08:54.327Z,94769.00
2024-04-18T15:09:54.451Z,94772.00
2024-04-18T15:10:54.533Z,94773.00
2024-04-18T15:11:54.662Z,94773.00
2024-04-18T15:12:54.719Z,94775.00
2024-04-18T15:13:54.845Z,94777.00
2024-04-18T15:14:54.928Z,94775.00
2024-04-18T15:15:55.044Z,94775.00
2024-04-18T15:16:55.141Z,94777.00
2024-04-18T15:17:55.252Z,94778.00
2024-04-18T15:18:55.445Z,94777.00
2024-04-18T15:19:55.447Z,94779.00
2024-04-18T15:20:55.580Z,94780.00
2024-04-18T15:21:55.663Z,94780.00
2024-04-18T15:22:56.323Z,94784.00
2024-04-18T15:23:55.801Z,94784.00
2024-04-18T15:24:55.834Z,94784.00
2024-04-18T15:25:55.900Z,94787.00
2024-04-18T15:26:55.952Z,94787.00
2024-04-18T15:27:55.986Z,94788.00
2024-04-18T15:28:56.039Z,94787.00
2024-04-18T15:29:56.060Z,94790.00
2024-04-18T15:30:56.136Z,94790.00
2024-04-18T15:31:56.233Z,94790.00
2024-04-18T15:32:56.272Z,94793.00
2024-04-18T15:33:56.271Z,94792.00
2024-04-18T15:34:56.321Z,94793.00
2024-04-18T15:35:56.344Z,94791.00
2024-04-18T15:36:56.485Z,94792.00
2024-04-18T15:37:56.575Z,94792.00
2024-04-18T15:38:56.679Z,94790.00
2024-04-18T15:39:56.777Z,94792.00
2024-04-18T15:40:56.923Z,94795.00
2024-04-18T15:41:57.084Z,94796.00
2024-04-18T15:42:57.147Z,94796.00
2024-04-18T15:43:57.232Z,94799.00
2024-04-18T15:44:57.329Z,94799.00
2024-04-18T15:45:59.255Z,94802.00
2024-04-18T15:46:57.495Z,94800.00
2024-04-18T15:47:57.541Z,94800.00
2024-04-18T15:48:57.487Z,94799.00
2024-04-18T15:49:57.441Z,94799.00
2024-04-18T15:50:57.465Z,94798.00
2024-04-18T15:51:57.442Z,94797.00
2024-04-18T15:52:57.478Z,94798.00
2024-04-18T15:53:57.455Z,94796.00
2024-04-18T15:55:08.585Z,94797.00
2024-04-18T15:55:58.529Z,94800.00
2024-04-18T15:56:57.514Z,94806.00
2024-04-18T15:57:57.482Z,94806.00
2024-04-18T15:58:57.496Z,94811.00
2024-04-18T15:59:57.483Z,94811.00
2024-04-18T16:00:57.486Z,94814.00
2024-04-18T16:01:57.521Z,94812.00
2024-04-18T16:02:58.921Z,94812.00
2024-04-18T16:04:52.448Z,94816.00
2024-04-18T16:05:52.372Z,94817.00
2024-04-18T16:06:52.390Z,94815.00
2024-04-18T16:07:52.392Z,94817.00
2024-04-18T16:08:52.395Z,94816.00
2024-04-18T16:09:52.376Z,94817.00
2024-04-18T16:10:52.385Z,94818.00
2024-04-18T16:11:52.407Z,94817.00
2024-04-18T16:12:52.445Z,94819.00
2024-04-18T16:13:52.365Z,94820.00
2024-04-18T16:14:52.370Z,94818.00
2024-04-18T16:15:52.373Z,94818.00
2024-04-18T16:16:52.454Z,94818.00
2024-04-18T16:17:52.411Z,94819.00
2024-04-18T16:18:52.431Z,94821.00
2024-04-18T16:19:52.430Z,94823.00
2024-04-18T16:20:52.410Z,94823.00
2024-04-18T16:21:52.442Z,94829.00
2024-04-18T16:22:52.470Z,94827.00
2024-04-18T16:23:52.429Z,94830.00
2024-04-18T16:24:52.427Z,94828.00
2024-04-18T16:25:52.431Z,94831.00
2024-04-18T16:26:52.437Z,94831.00
2024-04-18T16:27:52.461Z,94831.00
2024-04-18T16:28:52.455Z,94833.00
2024-04-18T16:29:52.428Z,94834.00
2024-04-18T16:30:52.543Z,94835.00
2024-04-18T16:31:52.644Z,94836.00
2024-04-18T16:32:52.800Z,94835.00
2024-04-18T16:33:52.883Z,94838.00
2024-04-18T16:34:52.959Z,94840.00
2024-04-18T16:35:53.089Z,94841.00
2024-04-18T16:37:04.720Z,94842.00
2024-04-18T16:37:54.250Z,94845.00
2024-04-18T16:38:53.278Z,94846.00
2024-04-18T16:39:53.261Z,94847.00
2024-04-18T16:40:53.242Z,94847.00
2024-04-18T16:41:53.280Z,94844.00
2024-04-18T16:42:53.262Z,94848.00
2024-04-18T16:43:53.280Z,94847.00
2024-04-18T16:44:53.302Z,94846.00
2024-04-18T16:45:53.308Z,94846.00
2024-04-18T16:46:53.407Z,94846.00
2024-04-18T16:47:53.658Z,94846.00
2024-04-18T16:48:53.692Z,94847.00
2024-04-18T16:49:53.781Z,94849.00
2024-04-18T16:50:53.902Z,94852.00
2024-04-18T16:51:54.045Z,94851.00
2024-04-18T16:52:54.156Z,94851.00
2024-04-18T16:53:54.295Z,94852.00
2024-04-18T16:54:54.376Z,94853.00
2024-04-18T16:55:54.544Z,94854.00
2024-04-18T16:56:54.662Z,94852.00
2024-04-18T16:57:54.809Z,94853.00
2024-04-18T16:58:54.931Z,94854.00
2024-04-18T16:59:55.028Z,94854.00
2024-04-18T17:00:55.337Z,94853.00
2024-04-18T17:01:55.311Z,94854.00
2024-04-18T17:02:55.529Z,94855.00
2024-04-18T17:03:55.708Z,94856.00
2024-04-18T17:04:55.660Z,94856.00
2024-04-18T17:05:55.772Z,94858.00
2024-04-18T17:06:55.988Z,94860.00
2024-04-18T17:07:56.155Z,94865.00
2024-04-18T17:08:56.115Z,94863.00
2024-04-18T17:09:56.226Z,94862.00
2024-04-18T17:10:56.343Z,94862.00
2024-04-18T17:11:56.391Z,94862.00
2024-04-18T17:12:56.527Z,94863.00
2024-04-18T17:13:56.796Z,94861.00
2024-04-18T17:14:56.688Z,94864.00
2024-04-18T17:15:56.684Z,94865.00
2024-04-18T17:16:56.697Z,94868.00
2024-04-18T17:17:56.851Z,94868.00
2024-04-18T17:18:56.995Z,94868.00
2024-04-18T17:19:56.882Z,94866.00
2024-04-18T17:20:56.928Z,94867.00
2024-04-18T17:21:56.970Z,94870.00
2024-04-18T17:22:57.045Z,94871.00
2024-04-18T17:23:57.344Z,94876.00
2024-04-18T17:24:57.170Z,94876.00
2024-04-18T17:25:57.173Z,94879.00
2024-04-18T17:26:57.232Z,94881.00
2024-04-18T17:27:57.285Z,94881.00
2024-04-18T17:28:57.353Z,94886.00
2024-04-18T17:29:57.391Z,94884.00
2024-04-18T17:30:57.443Z,94888.00
2024-04-18T17:31:57.569Z,94889.00
2024-04-18T17:32:57.608Z,94893.00
2024-04-18T17:33:57.617Z,94896.00
2024-04-18T17:34:57.657Z,94899.00
2024-04-18T17:35:57.717Z,94902.00
2024-04-18T17:36:57.791Z,94903.00
2024-04-18T17:37:57.830Z,94901.00
2024-04-18T17:38:57.899Z,94901.00
2024-04-18T17:39:57.948Z,94904.00
2024-04-18T17:40:58.365Z,94903.00
2024-04-18T17:41:58.110Z,94902.00
2024-04-18T17:42:58.139Z,94902.00
2024-04-18T17:43:58.201Z,94904.00
2024-04-18T17:44:58.299Z,94905.00
2024-04-18T17:45:58.335Z,94904.00
2024-04-18T17:46:58.427Z,94906.00
2024-04-18T17:47:58.609Z,94904.00
2024-04-18T17:48:58.672Z,94905.00
2024-04-18T17:49:58.660Z,94907.00
2024-04-18T17:50:58.732Z,94908.00
2024-04-18T17:51:58.776Z,94909.00
2024-04-18T17:52:58.872Z,94910.00
2024-04-18T17:53:58.931Z,94911.00
2024-04-18T17:54:59.893Z,94916.00
2024-04-18T17:55:59.059Z,94915.00
2024-04-18T17:56:59.097Z,94918.00
2024-04-18T17:57:59.163Z,94918.00
2024-04-18T17:58:59.167Z,94921.00
2024-04-18T17:59:59.170Z,94922.00
2024-04-18T18:00:59.257Z,94922.00
2024-04-18T18:01:59.300Z,94925.00
2024-04-18T18:02:59.482Z,94925.00
2024-04-18T18:03:59.503Z,94928.00
2024-04-18T18:04:59.528Z,94927.00
2024-04-18T18:05:59.608Z,94931.00
2024-04-18T18:06:59.681Z,94935.00
2024-04-18T18:07:59.739Z,94938.00
2024-04-18T18:08:59.827Z,94939.00
2024-04-18T18:09:59.915Z,94937.00
2024-04-18T18:10:59.991Z,94939.00
2024-04-18T18:12:00.106Z,94938.00
2024-04-18T18:13:00.170Z,94943.00
2024-04-18T18:14:00.243Z,94943.00
2024-04-18T18:15:00.530Z,94944.00
2024-04-18T18:16:00.410Z,94944.00
2024-04-18T18:17:00.523Z,94948.00
2024-04-18T18:18:00.752Z,94948.00
2024-04-18T18:19:00.782Z,94948.00
2024-04-18T18:20:00.762Z,94954.00
2024-04-18T18:21:00.870Z,94953.00
2024-04-18T18:22:00.953Z,94955.00
2024-04-18T18:23:01.045Z,94955.00
2024-04-18T18:24:01.116Z,94955.00
2024-04-18T18:25:01.194Z,94956.00
2024-04-18T18:26:01.295Z,94958.00
2024-04-18T18:27:01.376Z,94961.00
2024-04-18T18:28:01.473Z,94961.00
2024-04-18T18:29:01.569Z,94963.00
2024-04-18T18:30:01.774Z,94964.00
2024-04-18T18:31:01.802Z,94967.00
2024-04-18T18:32:01.954Z,94972.00
2024-04-18T18:33:02.007Z,94975.00
2024-04-18T18:34:02.077Z,94981.00
2024-04-18T18:35:02.166Z,94983.00
2024-04-18T18:36:02.228Z,94987.00
2024-04-18T18:37:02.348Z,94988.00